Tunbridge, Vermont
Current Conditions -  °F | °C
As of 4:53 AM on Thursday 23 Oct 2014 (Local Time) from KLEB Reporting Station
Light Rain Light Rain  
Wind Chill: 45°   Ceiling: 1400
Heat Index: 49°   Visibility: 8mi
Dew Point: 45°   Wind: 10mph
Humidity: 86%   Direction: 10°N
Pressure: 29.88"   Gusts: NA
Location:  43.89°N, 72.49°W
Report Text: KLEB 230853Z AUTO 01009KT 8SM -RA BKN014 OVC021 09/07 A2988 RMK AO2 SLP118 P0003 60010 T00940072 56012
Loading
Personal Weather Stations






























Interactive Weather Map
Tropical Storm Tracking
New forecast layout! Learn more

10-Day Weather Forecast

Advertisements
Track Severe Weather on mobile